EA1GCM-8
43.17.02N 005.48.47W
IN73CG aprs.fi
zuletzt gehoert:
2021-11-30T20:12:11Z
zuerst gehoert:
2020-04-06T17:44:24Z

APRS Mieres [IN73CG], 0 Stunde(n), EA1GCM-8 [16:47:44, 0s].
EA1IMW 43.14.36N 005.46.93WIN73CF 5.242km 160°SSE15:33:09ZGRUPO RADIO GALENA (GRG) 430.4500/430.4500 CC1
EA1HWX 43.19.39N 005.50.84WIN73BH 5.610km 322°NW15:33:16ZMMDVM DMO 435.5000/435.5000 CC1
EA1JBL 43.12.28N 005.47.42WIN73CE 8.825km 173°S15:33:03ZMMDVM DVMega 435.3000/435.3000 CC1
EB1DGC 43.12.60N 005.45.59WIN73CF 8.941km 156°SSE15:30:53ZMMDVM MMDVM HS Hat 433.4500/433.4500 CC1
EA1HWA 43.12.00N 005.47.40WIN73CE 9.363km 173°S15:32:26ZMMDVM MMDVM HS Hat 433.4500/433.4500 CC1
33D00 43.21.63N 005.51.13WIN73BI 9.379km 336°NNW15:02:31Z33-D-00 Protección Civil REMER / Delegación del Gobierno en Asturias
EA1L 43.19.11N 005.55.48WIN73AH 10.463km 292°WNW14:53:39ZWind 088°/000kn, Böen bis 001kn, Temp 7.78c, Regen 0.0mm, letzte 24h 0.0mm, seit 0h 0.0mm, Baro 1030.8h, Hum: 54%(3EA1L-13)
ea1l@ure.es V=13.5V,T=??.?C(2EA1L)
https://aprsdroid.org/(2EA1L-5)
LEHU 43.22.63N 005.49.57WIN73CJ 10.556km 350°N15:30:14ZHelipuerto del HUCA: LEAS 171430Z 09008KT 050V140 9999 FEW030 11/04 Q1033 NOSIG=
EA1YR 43.22.09N 005.51.86WIN73BI 10.596km 333°NNW15:33:19ZMMDVM DVS 434.3500/434.3500 CC1
ED1ZAU 43.23.04N 005.52.75WIN73BJ 12.696km 332°NNW15:30:26ZRD625 438.5000/430.9000 CC1
EA1RCG 43.09.45N 005.49.78WIN73CD 14.141km 188°S15:31:49ZGRUPO RADIO GALENA (GRG) 430.4500/430.4500 CC1
EA1ABW 43.24.77N 005.47.77WIN73CJ 14.410km N15:30:49ZMMDVM MMDVM HS Hat 439.8250/439.8250 CC1
LEMR 43.25.83N 005.49.60WIN73CK 16.437km 354°N15:30:14ZAerodromo de la Morgal: LEAS 171430Z 09008KT 050V140 9999 FEW030 11/04 Q1033 NOSIG=
LEGM 43.26.15N 005.49.84WIN73CK 17.080km 353°N15:30:12ZHelipuerto de La Morgal: LEAS 171430Z 09008KT 050V140 9999 FEW030 11/04 Q1033 NOSIG=
EA1GHF 43.12.00N 006.00.00WIN73AE 18.342km 240°WSW15:32:34ZMMDVM Nano hotSPOT 434.4000/434.4000 CC1
ED1ZAD 43.07.90N 005.38.52WIN73ED 21.399km 142°SE15:42:24ZED1ZAD-3 APRS Digi/Igate(3ED1ZAD-3)
ED1ZAS 43.27.52N 005.40.17WIN73DL 22.337km 29°NNE15:30:25ZRD985 438.2250/430.6250 CC1
ED1ZAE 43.27.99N 005.40.54WIN73DL 22.853km 27°NNE15:46:01Z2m Voice 145.5875 -0.600 Mhz(3ED1ZAE-C)
WIDE3-3 ESAS3-3 IN73DL WWW.EA1URG.ORG(2ED1ZAE-3)
ED1ZAY 43.29.47N 005.56.54WIN73AL 25.645km 334°NNW15:30:28ZRD625 438.3000/430.7000 CC1
EA1DZR 43.31.47N 005.40.00WIN73DM 29.012km 23°NNE15:31:38ZMMDVM DVMega 431.1000/431.1000 CC1
EB1GEM 43.30.00N 005.36.07WIN73EM 29.163km 34°NE15:41:29ZWX3in1Plus2.0 U=13.3V,T=??.?C/??.?F(3EB1GEM-3)
EB1TK 43.32.22N 005.42.32WIN73DM 29.318km 16°NNE15:45:20ZWind 087°/018kn, Böen bis 029kn, Temp 10.56c, Regen 0.0mm, letzte 24h 0.0mm, seit 0h 0.0mm, Baro 1035.9h, Hum: 76%(3EB1TK-13)
EA1IEJ 43.31.81N 005.40.25WIN73DM 29.492km 21°NNE15:32:06ZMMDVM MMDVM HS Hat 438.8500/438.8500 CC6
EA1AHA 43.32.72N 005.54.38WIN73BN 30.259km 344°NNW15:41:20ZWind 045°/009kn, Böen bis 012kn, Temp 12.78c, Regen 0.0mm, letzte 24h 0.3mm, seit 0h 0.3mm, Baro 1034.4h, Hum: 56%(3EA1AHA-13)
LEEL 43.32.98N 005.41.71WIN73DN 30.878km 17°NNE15:30:14ZHelipuerto de El Musel: LEAS 171430Z 09008KT 050V140 9999 FEW030 11/04 Q1033 NOSIG=
EA1HJA 43.28.10N 005.30.45WIN73FL 31.606km 49°NE15:47:35Z IN73FL WX3IN1+ 2.0 - V=14.0V,TX TEMP=42.2C
IN73FL WX3IN1+ 2.0 - V=13.2V,TX TEMP=25.5C(2EA1HJA-2)
EA1FHR 43.28.72N 005.26.41WIN73GL 36.572km 53°NE15:32:07ZMMDVM MMDVM HS Hat 439.1500/439.1500 CC1
EA1JAY 43.29.33N 005.26.78WIN73GL 36.881km 52°NE15:15:09Z434.525MHz Nodo TETRA DMO(3EA1JAY-4)
EA1JAY(2EA1JAY-2)
LETN 43.20.05N 006.22.69WIN63TI 46.747km 277°W15:30:13ZAerodromo de La Curiscada (Tineo): LEAS 171430Z 09008KT 050V140 9999 FEW030 11/04 Q1033 NOSIG=

aprs.pl 5.0.011w DL3EL © 2006-2021 [1420912]